sensor_id;sensor_type;location;lat;lon;timestamp;P1;durP1;ratioP1;P2;durP2;ratioP2
75021;SDS011;63583;49.976;20.182;2024-01-25T00:02:18;6.53;;;2.47;;
75021;SDS011;63583;49.976;20.182;2024-01-25T00:04:43;5.70;;;1.92;;
75021;SDS011;63583;49.976;20.182;2024-01-25T00:07:09;6.75;;;2.30;;
75021;SDS011;63583;49.976;20.182;2024-01-25T00:09:35;6.13;;;1.67;;
75021;SDS011;63583;49.976;20.182;2024-01-25T00:12:01;6.05;;;2.17;;
75021;SDS011;63583;49.976;20.182;2024-01-25T00:14:27;6.40;;;1.98;;
75021;SDS011;63583;49.976;20.182;2024-01-25T00:16:53;9.02;;;2.10;;
75021;SDS011;63583;49.976;20.182;2024-01-25T00:19:19;8.38;;;1.83;;
75021;SDS011;63583;49.976;20.182;2024-01-25T00:21:44;4.57;;;1.45;;
75021;SDS011;63583;49.976;20.182;2024-01-25T00:24:11;4.50;;;1.77;;
75021;SDS011;63583;49.976;20.182;2024-01-25T00:26:37;3.88;;;1.70;;
75021;SDS011;63583;49.976;20.182;2024-01-25T00:31:41;5.20;;;1.60;;
75021;SDS011;63583;49.976;20.182;2024-01-25T00:34:07;4.90;;;1.88;;
75021;SDS011;63583;49.976;20.182;2024-01-25T00:36:33;5.97;;;2.50;;
75021;SDS011;63583;49.976;20.182;2024-01-25T00:41:27;4.07;;;1.63;;
75021;SDS011;63583;49.976;20.182;2024-01-25T00:43:56;9.48;;;3.35;;
75021;SDS011;63583;49.976;20.182;2024-01-25T00:46:21;6.25;;;2.67;;
75021;SDS011;63583;49.976;20.182;2024-01-25T00:48:47;5.97;;;1.95;;
75021;SDS011;63583;49.976;20.182;2024-01-25T00:51:19;8.88;;;2.72;;
75021;SDS011;63583;49.976;20.182;2024-01-25T00:53:47;7.85;;;2.35;;
75021;SDS011;63583;49.976;20.182;2024-01-25T00:56:13;9.18;;;2.60;;
75021;SDS011;63583;49.976;20.182;2024-01-25T00:58:39;5.35;;;1.63;;
75021;SDS011;63583;49.976;20.182;2024-01-25T01:01:05;5.07;;;1.67;;
75021;SDS011;63583;49.976;20.182;2024-01-25T01:03:32;6.00;;;2.05;;
75021;SDS011;63583;49.976;20.182;2024-01-25T01:05:58;5.68;;;1.95;;
75021;SDS011;63583;49.976;20.182;2024-01-25T01:08:24;4.80;;;1.63;;
75021;SDS011;63583;49.976;20.182;2024-01-25T01:10:51;8.15;;;2.15;;
75021;SDS011;63583;49.976;20.182;2024-01-25T01:13:17;6.53;;;2.00;;
75021;SDS011;63583;49.976;20.182;2024-01-25T01:15:42;7.88;;;1.80;;
75021;SDS011;63583;49.976;20.182;2024-01-25T01:18:08;4.57;;;1.48;;
75021;SDS011;63583;49.976;20.182;2024-01-25T01:20:34;8.25;;;1.83;;
75021;SDS011;63583;49.976;20.182;2024-01-25T01:23:00;5.47;;;1.85;;
75021;SDS011;63583;49.976;20.182;2024-01-25T01:25:25;5.70;;;1.75;;
75021;SDS011;63583;49.976;20.182;2024-01-25T01:27:51;3.30;;;1.58;;
75021;SDS011;63583;49.976;20.182;2024-01-25T01:30:17;5.35;;;1.88;;
75021;SDS011;63583;49.976;20.182;2024-01-25T01:32:43;6.35;;;1.98;;
75021;SDS011;63583;49.976;20.182;2024-01-25T01:35:08;6.88;;;1.88;;
75021;SDS011;63583;49.976;20.182;2024-01-25T01:37:34;6.57;;;2.38;;
75021;SDS011;63583;49.976;20.182;2024-01-25T01:40:00;5.28;;;1.50;;
75021;SDS011;63583;49.976;20.182;2024-01-25T01:42:27;5.93;;;1.83;;
75021;SDS011;63583;49.976;20.182;2024-01-25T01:44:53;7.75;;;1.88;;
75021;SDS011;63583;49.976;20.182;2024-01-25T01:47:19;4.88;;;1.48;;
75021;SDS011;63583;49.976;20.182;2024-01-25T01:49:45;7.43;;;1.90;;
75021;SDS011;63583;49.976;20.182;2024-01-25T01:52:12;7.07;;;1.75;;
75021;SDS011;63583;49.976;20.182;2024-01-25T01:54:37;3.08;;;1.55;;
75021;SDS011;63583;49.976;20.182;2024-01-25T01:57:04;3.70;;;1.73;;
75021;SDS011;63583;49.976;20.182;2024-01-25T01:59:30;6.90;;;1.55;;
75021;SDS011;63583;49.976;20.182;2024-01-25T02:01:56;4.95;;;1.88;;
75021;SDS011;63583;49.976;20.182;2024-01-25T02:04:22;6.50;;;1.70;;
75021;SDS011;63583;49.976;20.182;2024-01-25T02:06:48;6.45;;;1.25;;
75021;SDS011;63583;49.976;20.182;2024-01-25T02:09:13;2.58;;;1.40;;
75021;SDS011;63583;49.976;20.182;2024-01-25T02:11:39;5.10;;;1.92;;
75021;SDS011;63583;49.976;20.182;2024-01-25T02:14:05;5.47;;;1.80;;
75021;SDS011;63583;49.976;20.182;2024-01-25T02:16:36;3.90;;;1.50;;
75021;SDS011;63583;49.976;20.182;2024-01-25T02:19:01;5.60;;;2.10;;
75021;SDS011;63583;49.976;20.182;2024-01-25T02:21:27;4.35;;;1.17;;
75021;SDS011;63583;49.976;20.182;2024-01-25T02:23:53;6.35;;;1.80;;
75021;SDS011;63583;49.976;20.182;2024-01-25T02:26:19;8.82;;;2.10;;
75021;SDS011;63583;49.976;20.182;2024-01-25T02:28:45;3.53;;;1.52;;
75021;SDS011;63583;49.976;20.182;2024-01-25T02:31:11;5.28;;;1.95;;
75021;SDS011;63583;49.976;20.182;2024-01-25T02:33:36;5.40;;;1.50;;
75021;SDS011;63583;49.976;20.182;2024-01-25T02:36:02;4.20;;;1.40;;
75021;SDS011;63583;49.976;20.182;2024-01-25T02:38:28;8.70;;;1.50;;
75021;SDS011;63583;49.976;20.182;2024-01-25T02:40:54;5.45;;;1.15;;
75021;SDS011;63583;49.976;20.182;2024-01-25T02:43:20;4.72;;;1.38;;
75021;SDS011;63583;49.976;20.182;2024-01-25T02:45:46;4.15;;;1.40;;
75021;SDS011;63583;49.976;20.182;2024-01-25T02:48:13;5.00;;;1.38;;
75021;SDS011;63583;49.976;20.182;2024-01-25T02:50:40;9.75;;;2.05;;
75021;SDS011;63583;49.976;20.182;2024-01-25T02:53:05;8.15;;;1.50;;
75021;SDS011;63583;49.976;20.182;2024-01-25T02:55:31;6.20;;;1.35;;
75021;SDS011;63583;49.976;20.182;2024-01-25T02:57:57;4.78;;;1.55;;
75021;SDS011;63583;49.976;20.182;2024-01-25T03:00:23;3.97;;;1.20;;
75021;SDS011;63583;49.976;20.182;2024-01-25T03:02:49;6.28;;;1.48;;
75021;SDS011;63583;49.976;20.182;2024-01-25T03:05:15;5.93;;;1.73;;
75021;SDS011;63583;49.976;20.182;2024-01-25T03:07:40;5.53;;;1.38;;
75021;SDS011;63583;49.976;20.182;2024-01-25T03:10:06;8.00;;;1.83;;
75021;SDS011;63583;49.976;20.182;2024-01-25T03:12:32;5.75;;;1.35;;
75021;SDS011;63583;49.976;20.182;2024-01-25T03:14:58;8.70;;;1.98;;
75021;SDS011;63583;49.976;20.182;2024-01-25T03:17:24;4.75;;;1.27;;
75021;SDS011;63583;49.976;20.182;2024-01-25T03:19:51;5.65;;;1.42;;
75021;SDS011;63583;49.976;20.182;2024-01-25T03:22:16;9.10;;;1.40;;
75021;SDS011;63583;49.976;20.182;2024-01-25T03:24:42;5.55;;;1.35;;
75021;SDS011;63583;49.976;20.182;2024-01-25T03:27:08;4.40;;;1.30;;
75021;SDS011;63583;49.976;20.182;2024-01-25T03:29:42;7.07;;;1.75;;
75021;SDS011;63583;49.976;20.182;2024-01-25T03:32:11;5.88;;;1.55;;
75021;SDS011;63583;49.976;20.182;2024-01-25T03:34:37;3.45;;;1.10;;
75021;SDS011;63583;49.976;20.182;2024-01-25T03:37:03;3.53;;;1.20;;
75021;SDS011;63583;49.976;20.182;2024-01-25T03:39:29;7.00;;;1.42;;
75021;SDS011;63583;49.976;20.182;2024-01-25T03:41:55;3.33;;;1.05;;
75021;SDS011;63583;49.976;20.182;2024-01-25T03:44:21;5.28;;;1.10;;
75021;SDS011;63583;49.976;20.182;2024-01-25T03:46:46;5.22;;;1.08;;
75021;SDS011;63583;49.976;20.182;2024-01-25T03:49:12;4.90;;;1.20;;
75021;SDS011;63583;49.976;20.182;2024-01-25T03:51:38;4.70;;;1.23;;
75021;SDS011;63583;49.976;20.182;2024-01-25T03:54:04;6.22;;;1.63;;
75021;SDS011;63583;49.976;20.182;2024-01-25T03:56:30;3.38;;;1.15;;
75021;SDS011;63583;49.976;20.182;2024-01-25T03:58:55;4.60;;;1.45;;
75021;SDS011;63583;49.976;20.182;2024-01-25T04:01:21;6.68;;;1.40;;
75021;SDS011;63583;49.976;20.182;2024-01-25T04:03:47;7.88;;;1.83;;
75021;SDS011;63583;49.976;20.182;2024-01-25T04:06:13;2.88;;;1.17;;
75021;SDS011;63583;49.976;20.182;2024-01-25T04:08:39;7.90;;;1.70;;
75021;SDS011;63583;49.976;20.182;2024-01-25T04:11:04;5.60;;;1.73;;
75021;SDS011;63583;49.976;20.182;2024-01-25T04:13:31;4.88;;;1.30;;
75021;SDS011;63583;49.976;20.182;2024-01-25T04:15:56;5.53;;;1.98;;
75021;SDS011;63583;49.976;20.182;2024-01-25T04:18:22;4.32;;;1.42;;
75021;SDS011;63583;49.976;20.182;2024-01-25T04:20:48;9.48;;;2.10;;
75021;SDS011;63583;49.976;20.182;2024-01-25T04:23:16;8.25;;;1.92;;
75021;SDS011;63583;49.976;20.182;2024-01-25T04:25:42;7.80;;;2.35;;
75021;SDS011;63583;49.976;20.182;2024-01-25T04:28:08;6.53;;;2.47;;
75021;SDS011;63583;49.976;20.182;2024-01-25T04:30:34;10.82;;;2.15;;
75021;SDS011;63583;49.976;20.182;2024-01-25T04:33:00;9.07;;;2.00;;
75021;SDS011;63583;49.976;20.182;2024-01-25T04:35:25;9.98;;;1.98;;
75021;SDS011;63583;49.976;20.182;2024-01-25T04:37:52;7.45;;;1.92;;
75021;SDS011;63583;49.976;20.182;2024-01-25T04:40:17;7.03;;;1.58;;
75021;SDS011;63583;49.976;20.182;2024-01-25T04:42:44;7.38;;;1.98;;
75021;SDS011;63583;49.976;20.182;2024-01-25T04:45:10;7.57;;;1.88;;
75021;SDS011;63583;49.976;20.182;2024-01-25T04:47:39;6.35;;;1.73;;
75021;SDS011;63583;49.976;20.182;2024-01-25T04:50:05;4.70;;;1.80;;
75021;SDS011;63583;49.976;20.182;2024-01-25T04:52:31;5.80;;;2.15;;
75021;SDS011;63583;49.976;20.182;2024-01-25T04:54:57;8.52;;;1.48;;
75021;SDS011;63583;49.976;20.182;2024-01-25T04:57:23;7.35;;;1.83;;
75021;SDS011;63583;49.976;20.182;2024-01-25T04:59:49;2.80;;;1.25;;
75021;SDS011;63583;49.976;20.182;2024-01-25T05:02:15;8.75;;;1.63;;
75021;SDS011;63583;49.976;20.182;2024-01-25T05:04:40;7.53;;;1.35;;
75021;SDS011;63583;49.976;20.182;2024-01-25T05:07:06;5.88;;;1.85;;
75021;SDS011;63583;49.976;20.182;2024-01-25T05:09:32;5.63;;;1.45;;
75021;SDS011;63583;49.976;20.182;2024-01-25T05:11:58;4.53;;;1.40;;
75021;SDS011;63583;49.976;20.182;2024-01-25T05:14:27;5.50;;;1.30;;
75021;SDS011;63583;49.976;20.182;2024-01-25T05:16:53;6.35;;;1.50;;
75021;SDS011;63583;49.976;20.182;2024-01-25T05:19:18;4.90;;;1.70;;
75021;SDS011;63583;49.976;20.182;2024-01-25T05:21:44;3.75;;;1.27;;
75021;SDS011;63583;49.976;20.182;2024-01-25T05:24:10;8.20;;;1.80;;
75021;SDS011;63583;49.976;20.182;2024-01-25T05:26:36;7.25;;;1.70;;
75021;SDS011;63583;49.976;20.182;2024-01-25T05:29:02;8.05;;;1.33;;
75021;SDS011;63583;49.976;20.182;2024-01-25T05:31:28;4.40;;;1.38;;
75021;SDS011;63583;49.976;20.182;2024-01-25T05:33:53;3.72;;;1.42;;
75021;SDS011;63583;49.976;20.182;2024-01-25T05:36:19;6.20;;;1.50;;
75021;SDS011;63583;49.976;20.182;2024-01-25T05:38:45;3.17;;;1.30;;
75021;SDS011;63583;49.976;20.182;2024-01-25T05:41:11;7.28;;;1.50;;
75021;SDS011;63583;49.976;20.182;2024-01-25T05:43:37;5.70;;;1.80;;
75021;SDS011;63583;49.976;20.182;2024-01-25T05:46:03;6.10;;;1.40;;
75021;SDS011;63583;49.976;20.182;2024-01-25T05:48:29;5.07;;;1.35;;
75021;SDS011;63583;49.976;20.182;2024-01-25T05:50:54;5.05;;;1.48;;
75021;SDS011;63583;49.976;20.182;2024-01-25T05:53:20;5.43;;;1.77;;
75021;SDS011;63583;49.976;20.182;2024-01-25T05:55:47;5.07;;;1.27;;
75021;SDS011;63583;49.976;20.182;2024-01-25T05:58:12;4.68;;;1.40;;
75021;SDS011;63583;49.976;20.182;2024-01-25T06:00:38;7.90;;;1.90;;
75021;SDS011;63583;49.976;20.182;2024-01-25T06:03:04;4.70;;;1.85;;
75021;SDS011;63583;49.976;20.182;2024-01-25T06:05:30;6.78;;;2.42;;
75021;SDS011;63583;49.976;20.182;2024-01-25T06:07:56;5.20;;;1.30;;
75021;SDS011;63583;49.976;20.182;2024-01-25T06:10:22;4.97;;;1.45;;
75021;SDS011;63583;49.976;20.182;2024-01-25T06:12:48;6.15;;;1.50;;
75021;SDS011;63583;49.976;20.182;2024-01-25T06:15:14;4.97;;;1.70;;
75021;SDS011;63583;49.976;20.182;2024-01-25T06:17:39;4.13;;;0.88;;
75021;SDS011;63583;49.976;20.182;2024-01-25T06:20:05;2.05;;;1.13;;
75021;SDS011;63583;49.976;20.182;2024-01-25T06:22:31;6.20;;;1.88;;
75021;SDS011;63583;49.976;20.182;2024-01-25T06:24:57;6.00;;;1.92;;
75021;SDS011;63583;49.976;20.182;2024-01-25T06:27:23;4.15;;;1.58;;
75021;SDS011;63583;49.976;20.182;2024-01-25T06:29:48;6.40;;;2.08;;
75021;SDS011;63583;49.976;20.182;2024-01-25T06:32:14;6.47;;;2.30;;
75021;SDS011;63583;49.976;20.182;2024-01-25T06:34:40;4.25;;;1.48;;
75021;SDS011;63583;49.976;20.182;2024-01-25T06:37:06;6.47;;;1.73;;
75021;SDS011;63583;49.976;20.182;2024-01-25T06:39:32;5.80;;;2.30;;
75021;SDS011;63583;49.976;20.182;2024-01-25T06:41:57;5.80;;;1.77;;
75021;SDS011;63583;49.976;20.182;2024-01-25T06:44:23;3.75;;;1.50;;
75021;SDS011;63583;49.976;20.182;2024-01-25T06:46:49;8.50;;;1.95;;
75021;SDS011;63583;49.976;20.182;2024-01-25T06:49:15;5.03;;;2.20;;
75021;SDS011;63583;49.976;20.182;2024-01-25T06:51:41;5.80;;;1.95;;
75021;SDS011;63583;49.976;20.182;2024-01-25T06:54:07;3.22;;;1.55;;
75021;SDS011;63583;49.976;20.182;2024-01-25T06:56:32;5.85;;;1.77;;
75021;SDS011;63583;49.976;20.182;2024-01-25T06:59:00;3.83;;;1.75;;
75021;SDS011;63583;49.976;20.182;2024-01-25T07:01:25;4.38;;;1.60;;
75021;SDS011;63583;49.976;20.182;2024-01-25T07:03:53;3.67;;;1.25;;
75021;SDS011;63583;49.976;20.182;2024-01-25T07:06:19;5.82;;;1.48;;
75021;SDS011;63583;49.976;20.182;2024-01-25T07:08:45;4.60;;;1.65;;
75021;SDS011;63583;49.976;20.182;2024-01-25T07:11:11;6.85;;;1.70;;
75021;SDS011;63583;49.976;20.182;2024-01-25T07:13:37;4.28;;;1.63;;
75021;SDS011;63583;49.976;20.182;2024-01-25T07:16:04;6.22;;;1.95;;
75021;SDS011;63583;49.976;20.182;2024-01-25T07:18:30;7.65;;;1.65;;
75021;SDS011;63583;49.976;20.182;2024-01-25T07:20:56;5.50;;;1.70;;
75021;SDS011;63583;49.976;20.182;2024-01-25T07:23:22;8.13;;;1.48;;
75021;SDS011;63583;49.976;20.182;2024-01-25T07:25:47;6.95;;;1.88;;
75021;SDS011;63583;49.976;20.182;2024-01-25T07:28:13;7.18;;;1.92;;
75021;SDS011;63583;49.976;20.182;2024-01-25T07:30:39;8.80;;;1.98;;
75021;SDS011;63583;49.976;20.182;2024-01-25T07:33:05;8.80;;;2.88;;
75021;SDS011;63583;49.976;20.182;2024-01-25T07:35:31;7.38;;;2.13;;
75021;SDS011;63583;49.976;20.182;2024-01-25T07:37:57;6.20;;;2.10;;
75021;SDS011;63583;49.976;20.182;2024-01-25T07:40:23;4.35;;;1.83;;
75021;SDS011;63583;49.976;20.182;2024-01-25T07:42:49;4.65;;;2.05;;
75021;SDS011;63583;49.976;20.182;2024-01-25T07:45:15;7.57;;;2.05;;
75021;SDS011;63583;49.976;20.182;2024-01-25T07:47:41;9.75;;;2.30;;
75021;SDS011;63583;49.976;20.182;2024-01-25T07:50:07;7.93;;;2.40;;
75021;SDS011;63583;49.976;20.182;2024-01-25T07:52:37;6.32;;;2.08;;
75021;SDS011;63583;49.976;20.182;2024-01-25T07:55:02;8.40;;;2.33;;
75021;SDS011;63583;49.976;20.182;2024-01-25T07:57:29;7.57;;;2.38;;
75021;SDS011;63583;49.976;20.182;2024-01-25T07:59:54;7.15;;;2.60;;
75021;SDS011;63583;49.976;20.182;2024-01-25T08:02:20;5.85;;;2.00;;
75021;SDS011;63583;49.976;20.182;2024-01-25T08:04:47;9.25;;;1.70;;
75021;SDS011;63583;49.976;20.182;2024-01-25T08:07:14;4.47;;;1.90;;
75021;SDS011;63583;49.976;20.182;2024-01-25T08:09:40;7.22;;;2.15;;
75021;SDS011;63583;49.976;20.182;2024-01-25T08:12:06;5.40;;;2.08;;
75021;SDS011;63583;49.976;20.182;2024-01-25T08:14:32;10.75;;;2.85;;
75021;SDS011;63583;49.976;20.182;2024-01-25T08:16:58;5.80;;;2.42;;
75021;SDS011;63583;49.976;20.182;2024-01-25T08:19:23;8.05;;;2.60;;
75021;SDS011;63583;49.976;20.182;2024-01-25T08:21:49;7.15;;;3.10;;
75021;SDS011;63583;49.976;20.182;2024-01-25T08:24:15;11.20;;;3.42;;
75021;SDS011;63583;49.976;20.182;2024-01-25T08:26:41;6.75;;;2.33;;
75021;SDS011;63583;49.976;20.182;2024-01-25T08:29:07;5.90;;;2.53;;
75021;SDS011;63583;49.976;20.182;2024-01-25T08:31:33;6.38;;;2.63;;
75021;SDS011;63583;49.976;20.182;2024-01-25T08:33:58;7.15;;;2.58;;
75021;SDS011;63583;49.976;20.182;2024-01-25T08:36:25;6.30;;;2.55;;
75021;SDS011;63583;49.976;20.182;2024-01-25T08:38:50;3.67;;;1.75;;
75021;SDS011;63583;49.976;20.182;2024-01-25T08:41:16;6.85;;;2.40;;
75021;SDS011;63583;49.976;20.182;2024-01-25T08:43:42;8.63;;;2.33;;
75021;SDS011;63583;49.976;20.182;2024-01-25T08:46:08;4.75;;;1.88;;
75021;SDS011;63583;49.976;20.182;2024-01-25T08:48:34;5.75;;;2.05;;
75021;SDS011;63583;49.976;20.182;2024-01-25T08:51:00;8.70;;;3.53;;
75021;SDS011;63583;49.976;20.182;2024-01-25T08:53:26;8.50;;;3.10;;
75021;SDS011;63583;49.976;20.182;2024-01-25T08:55:54;9.98;;;2.78;;
75021;SDS011;63583;49.976;20.182;2024-01-25T08:58:20;6.35;;;2.72;;
75021;SDS011;63583;49.976;20.182;2024-01-25T09:00:46;7.72;;;2.67;;
75021;SDS011;63583;49.976;20.182;2024-01-25T09:03:12;7.82;;;2.47;;
75021;SDS011;63583;49.976;20.182;2024-01-25T09:05:38;8.32;;;2.65;;
75021;SDS011;63583;49.976;20.182;2024-01-25T09:08:11;5.97;;;2.50;;
75021;SDS011;63583;49.976;20.182;2024-01-25T09:10:40;5.38;;;2.85;;
75021;SDS011;63583;49.976;20.182;2024-01-25T09:13:07;9.63;;;3.33;;
75021;SDS011;63583;49.976;20.182;2024-01-25T09:15:33;13.10;;;3.25;;
75021;SDS011;63583;49.976;20.182;2024-01-25T09:17:59;9.57;;;2.60;;
75021;SDS011;63583;49.976;20.182;2024-01-25T09:20:25;8.35;;;2.75;;
75021;SDS011;63583;49.976;20.182;2024-01-25T09:22:51;8.73;;;3.03;;
75021;SDS011;63583;49.976;20.182;2024-01-25T09:25:19;6.07;;;2.38;;
75021;SDS011;63583;49.976;20.182;2024-01-25T09:27:45;9.50;;;2.70;;
75021;SDS011;63583;49.976;20.182;2024-01-25T09:30:11;5.90;;;2.88;;
75021;SDS011;63583;49.976;20.182;2024-01-25T09:32:37;8.10;;;2.63;;
75021;SDS011;63583;49.976;20.182;2024-01-25T09:35:03;6.72;;;2.25;;
75021;SDS011;63583;49.976;20.182;2024-01-25T09:37:29;8.70;;;3.20;;
75021;SDS011;63583;49.976;20.182;2024-01-25T09:39:55;11.32;;;2.90;;
75021;SDS011;63583;49.976;20.182;2024-01-25T09:42:21;6.68;;;2.47;;
75021;SDS011;63583;49.976;20.182;2024-01-25T09:44:47;10.93;;;3.03;;
75021;SDS011;63583;49.976;20.182;2024-01-25T09:47:13;5.60;;;2.33;;
75021;SDS011;63583;49.976;20.182;2024-01-25T09:49:39;12.15;;;3.25;;
75021;SDS011;63583;49.976;20.182;2024-01-25T09:52:06;6.68;;;2.78;;
75021;SDS011;63583;49.976;20.182;2024-01-25T09:54:38;7.75;;;2.75;;
75021;SDS011;63583;49.976;20.182;2024-01-25T09:57:08;5.78;;;2.40;;
75021;SDS011;63583;49.976;20.182;2024-01-25T09:59:43;7.65;;;2.47;;
75021;SDS011;63583;49.976;20.182;2024-01-25T10:02:09;8.60;;;2.45;;
75021;SDS011;63583;49.976;20.182;2024-01-25T10:04:36;9.27;;;2.63;;
75021;SDS011;63583;49.976;20.182;2024-01-25T10:07:01;7.38;;;2.03;;
75021;SDS011;63583;49.976;20.182;2024-01-25T10:09:28;7.63;;;2.25;;
75021;SDS011;63583;49.976;20.182;2024-01-25T10:11:53;8.02;;;2.55;;
75021;SDS011;63583;49.976;20.182;2024-01-25T10:14:19;9.68;;;2.30;;
75021;SDS011;63583;49.976;20.182;2024-01-25T10:16:45;11.80;;;3.20;;
75021;SDS011;63583;49.976;20.182;2024-01-25T10:19:11;9.35;;;2.70;;
75021;SDS011;63583;49.976;20.182;2024-01-25T10:21:37;6.97;;;2.20;;
75021;SDS011;63583;49.976;20.182;2024-01-25T10:24:05;8.48;;;2.75;;
75021;SDS011;63583;49.976;20.182;2024-01-25T10:26:31;9.48;;;2.97;;
75021;SDS011;63583;49.976;20.182;2024-01-25T10:28:57;10.00;;;2.33;;
75021;SDS011;63583;49.976;20.182;2024-01-25T10:31:24;8.93;;;2.15;;
75021;SDS011;63583;49.976;20.182;2024-01-25T10:33:53;12.57;;;2.75;;
75021;SDS011;63583;49.976;20.182;2024-01-25T10:36:20;8.80;;;3.30;;
75021;SDS011;63583;49.976;20.182;2024-01-25T10:38:50;6.70;;;2.53;;
75021;SDS011;63583;49.976;20.182;2024-01-25T10:41:17;11.55;;;2.72;;
75021;SDS011;63583;49.976;20.182;2024-01-25T10:43:45;13.40;;;2.65;;
75021;SDS011;63583;49.976;20.182;2024-01-25T10:46:11;10.43;;;3.03;;
75021;SDS011;63583;49.976;20.182;2024-01-25T10:48:37;7.88;;;2.22;;
75021;SDS011;63583;49.976;20.182;2024-01-25T10:51:04;5.32;;;1.65;;
75021;SDS011;63583;49.976;20.182;2024-01-25T10:53:31;5.00;;;1.70;;
75021;SDS011;63583;49.976;20.182;2024-01-25T10:55:58;7.00;;;2.20;;
75021;SDS011;63583;49.976;20.182;2024-01-25T10:58:29;6.65;;;1.83;;
75021;SDS011;63583;49.976;20.182;2024-01-25T11:01:00;7.38;;;2.25;;
75021;SDS011;63583;49.976;20.182;2024-01-25T11:03:27;7.93;;;2.47;;
75021;SDS011;63583;49.976;20.182;2024-01-25T11:06:09;9.55;;;2.08;;
75021;SDS011;63583;49.976;20.182;2024-01-25T11:08:36;7.63;;;2.75;;
75021;SDS011;63583;49.976;20.182;2024-01-25T11:11:06;5.28;;;2.47;;
75021;SDS011;63583;49.976;20.182;2024-01-25T11:13:34;7.55;;;1.88;;
75021;SDS011;63583;49.976;20.182;2024-01-25T11:16:16;10.40;;;2.65;;
75021;SDS011;63583;49.976;20.182;2024-01-25T11:18:47;8.70;;;2.58;;
75021;SDS011;63583;49.976;20.182;2024-01-25T11:21:26;7.38;;;2.40;;
75021;SDS011;63583;49.976;20.182;2024-01-25T11:24:02;7.32;;;2.30;;
75021;SDS011;63583;49.976;20.182;2024-01-25T11:26:28;9.82;;;2.58;;
75021;SDS011;63583;49.976;20.182;2024-01-25T11:28:56;10.43;;;2.92;;
75021;SDS011;63583;49.976;20.182;2024-01-25T11:31:25;8.45;;;2.25;;
75021;SDS011;63583;49.976;20.182;2024-01-25T11:33:56;6.00;;;2.47;;
75021;SDS011;63583;49.976;20.182;2024-01-25T11:36:25;6.53;;;2.22;;
75021;SDS011;63583;49.976;20.182;2024-01-25T11:38:52;5.40;;;2.03;;
75021;SDS011;63583;49.976;20.182;2024-01-25T11:41:18;4.10;;;1.85;;
75021;SDS011;63583;49.976;20.182;2024-01-25T11:43:44;8.07;;;2.50;;
75021;SDS011;63583;49.976;20.182;2024-01-25T11:46:10;6.60;;;2.25;;
75021;SDS011;63583;49.976;20.182;2024-01-25T11:48:38;8.30;;;2.60;;
75021;SDS011;63583;49.976;20.182;2024-01-25T11:51:06;7.78;;;1.98;;
75021;SDS011;63583;49.976;20.182;2024-01-25T11:53:32;9.00;;;2.20;;
75021;SDS011;63583;49.976;20.182;2024-01-25T11:55:57;4.90;;;1.67;;
75021;SDS011;63583;49.976;20.182;2024-01-25T11:58:23;5.97;;;3.03;;
75021;SDS011;63583;49.976;20.182;2024-01-25T12:00:51;9.10;;;2.47;;
75021;SDS011;63583;49.976;20.182;2024-01-25T12:03:19;9.55;;;2.33;;
75021;SDS011;63583;49.976;20.182;2024-01-25T12:05:46;5.88;;;2.35;;
75021;SDS011;63583;49.976;20.182;2024-01-25T12:08:13;7.38;;;2.10;;
75021;SDS011;63583;49.976;20.182;2024-01-25T12:10:39;7.13;;;2.22;;
75021;SDS011;63583;49.976;20.182;2024-01-25T12:13:07;7.80;;;2.17;;
75021;SDS011;63583;49.976;20.182;2024-01-25T12:15:33;6.38;;;2.40;;
75021;SDS011;63583;49.976;20.182;2024-01-25T12:17:59;13.65;;;2.60;;
75021;SDS011;63583;49.976;20.182;2024-01-25T12:20:24;7.38;;;2.28;;
75021;SDS011;63583;49.976;20.182;2024-01-25T12:22:52;4.88;;;1.70;;
75021;SDS011;63583;49.976;20.182;2024-01-25T12:25:17;5.25;;;1.80;;
75021;SDS011;63583;49.976;20.182;2024-01-25T12:27:43;6.28;;;2.28;;
75021;SDS011;63583;49.976;20.182;2024-01-25T12:30:12;7.68;;;2.05;;
75021;SDS011;63583;49.976;20.182;2024-01-25T12:32:38;10.60;;;2.20;;
75021;SDS011;63583;49.976;20.182;2024-01-25T12:35:04;8.90;;;2.45;;
75021;SDS011;63583;49.976;20.182;2024-01-25T12:37:32;7.00;;;2.33;;
75021;SDS011;63583;49.976;20.182;2024-01-25T12:39:57;7.55;;;2.47;;
75021;SDS011;63583;49.976;20.182;2024-01-25T12:42:23;7.03;;;2.33;;
75021;SDS011;63583;49.976;20.182;2024-01-25T12:44:52;4.63;;;2.30;;
75021;SDS011;63583;49.976;20.182;2024-01-25T12:47:21;8.90;;;2.65;;
75021;SDS011;63583;49.976;20.182;2024-01-25T12:49:47;5.18;;;2.42;;
75021;SDS011;63583;49.976;20.182;2024-01-25T12:52:14;10.25;;;2.67;;
75021;SDS011;63583;49.976;20.182;2024-01-25T12:54:40;10.18;;;2.38;;
75021;SDS011;63583;49.976;20.182;2024-01-25T12:57:08;6.50;;;2.35;;
75021;SDS011;63583;49.976;20.182;2024-01-25T12:59:34;5.70;;;1.88;;
75021;SDS011;63583;49.976;20.182;2024-01-25T13:02:02;4.78;;;1.90;;
75021;SDS011;63583;49.976;20.182;2024-01-25T13:04:28;5.15;;;1.83;;
75021;SDS011;63583;49.976;20.182;2024-01-25T13:06:55;7.07;;;1.88;;
75021;SDS011;63583;49.976;20.182;2024-01-25T13:09:24;6.85;;;2.42;;
75021;SDS011;63583;49.976;20.182;2024-01-25T13:14:19;13.65;;;2.35;;
75021;SDS011;63583;49.976;20.182;2024-01-25T13:16:46;6.38;;;2.10;;
75021;SDS011;63583;49.976;20.182;2024-01-25T13:19:12;5.22;;;2.47;;
75021;SDS011;63583;49.976;20.182;2024-01-25T13:21:40;5.50;;;1.92;;
75021;SDS011;63583;49.976;20.182;2024-01-25T13:24:06;6.55;;;2.55;;
75021;SDS011;63583;49.976;20.182;2024-01-25T13:26:33;5.70;;;1.95;;
75021;SDS011;63583;49.976;20.182;2024-01-25T13:29:00;6.63;;;1.77;;
75021;SDS011;63583;49.976;20.182;2024-01-25T13:31:26;7.28;;;1.90;;
75021;SDS011;63583;49.976;20.182;2024-01-25T13:33:52;6.25;;;2.53;;
75021;SDS011;63583;49.976;20.182;2024-01-25T13:36:18;9.00;;;2.30;;
75021;SDS011;63583;49.976;20.182;2024-01-25T13:38:44;7.00;;;2.33;;
75021;SDS011;63583;49.976;20.182;2024-01-25T13:41:10;7.53;;;2.25;;
75021;SDS011;63583;49.976;20.182;2024-01-25T13:43:35;7.20;;;2.28;;
75021;SDS011;63583;49.976;20.182;2024-01-25T13:46:01;5.93;;;2.17;;
75021;SDS011;63583;49.976;20.182;2024-01-25T13:48:27;9.57;;;2.35;;
75021;SDS011;63583;49.976;20.182;2024-01-25T13:50:53;4.10;;;2.20;;
75021;SDS011;63583;49.976;20.182;2024-01-25T13:53:19;6.40;;;2.13;;
75021;SDS011;63583;49.976;20.182;2024-01-25T13:55:45;8.98;;;2.63;;
75021;SDS011;63583;49.976;20.182;2024-01-25T13:58:10;7.10;;;2.38;;
75021;SDS011;63583;49.976;20.182;2024-01-25T14:00:36;10.50;;;2.05;;
75021;SDS011;63583;49.976;20.182;2024-01-25T14:03:02;8.27;;;2.28;;
75021;SDS011;63583;49.976;20.182;2024-01-25T14:05:28;7.15;;;2.38;;
75021;SDS011;63583;49.976;20.182;2024-01-25T14:07:54;6.43;;;2.40;;
75021;SDS011;63583;49.976;20.182;2024-01-25T14:10:20;8.23;;;2.55;;
75021;SDS011;63583;49.976;20.182;2024-01-25T14:12:46;6.40;;;2.38;;
75021;SDS011;63583;49.976;20.182;2024-01-25T14:15:13;9.15;;;2.53;;
75021;SDS011;63583;49.976;20.182;2024-01-25T14:17:38;7.20;;;2.00;;
75021;SDS011;63583;49.976;20.182;2024-01-25T14:20:05;7.05;;;2.17;;
75021;SDS011;63583;49.976;20.182;2024-01-25T14:22:31;7.30;;;2.30;;
75021;SDS011;63583;49.976;20.182;2024-01-25T14:24:58;9.77;;;2.38;;
75021;SDS011;63583;49.976;20.182;2024-01-25T14:27:23;9.30;;;3.58;;
75021;SDS011;63583;49.976;20.182;2024-01-25T14:29:49;8.10;;;2.63;;
75021;SDS011;63583;49.976;20.182;2024-01-25T14:32:15;5.88;;;1.80;;
75021;SDS011;63583;49.976;20.182;2024-01-25T14:34:43;7.13;;;2.47;;
75021;SDS011;63583;49.976;20.182;2024-01-25T14:37:08;6.80;;;1.80;;